sensor_id;sensor_type;location;lat;lon;timestamp;pressure;altitude;pressure_sealevel;temperature;humidity
56668;BME280;42542;48.360;10.958;2023-12-14T00:02:30;94956.66;;;5.48;100.00
56668;BME280;42542;48.360;10.958;2023-12-14T00:05:32;94968.91;;;5.49;100.00
56668;BME280;42542;48.360;10.958;2023-12-14T00:08:34;94977.69;;;5.49;100.00
56668;BME280;42542;48.360;10.958;2023-12-14T00:11:39;94984.66;;;5.50;100.00
56668;BME280;42542;48.360;10.958;2023-12-14T00:14:41;94990.13;;;5.49;100.00
56668;BME280;42542;48.360;10.958;2023-12-14T00:17:43;94990.59;;;5.44;100.00
56668;BME280;42542;48.360;10.958;2023-12-14T00:20:45;94995.06;;;5.44;100.00
56668;BME280;42542;48.360;10.958;2023-12-14T00:23:47;94996.22;;;5.41;100.00
56668;BME280;42542;48.360;10.958;2023-12-14T00:26:49;95001.69;;;5.40;100.00
56668;BME280;42542;48.360;10.958;2023-12-14T00:29:51;94999.84;;;5.40;100.00
56668;BME280;42542;48.360;10.958;2023-12-14T00:32:54;95000.19;;;5.37;100.00
56668;BME280;42542;48.360;10.958;2023-12-14T00:35:56;94999.84;;;5.32;100.00
56668;BME280;42542;48.360;10.958;2023-12-14T00:38:58;95017.91;;;5.37;100.00
56668;BME280;42542;48.360;10.958;2023-12-14T00:42:00;95019.72;;;5.36;100.00
56668;BME280;42542;48.360;10.958;2023-12-14T00:45:08;95016.19;;;5.28;100.00
56668;BME280;42542;48.360;10.958;2023-12-14T00:48:16;95029.81;;;5.33;100.00
56668;BME280;42542;48.360;10.958;2023-12-14T00:51:18;95036.25;;;5.30;100.00
56668;BME280;42542;48.360;10.958;2023-12-14T00:54:20;95044.38;;;5.29;100.00
56668;BME280;42542;48.360;10.958;2023-12-14T00:57:21;95058.59;;;5.28;100.00
56668;BME280;42542;48.360;10.958;2023-12-14T01:00:24;95050.28;;;5.23;100.00
56668;BME280;42542;48.360;10.958;2023-12-14T01:03:26;95058.94;;;5.25;100.00
56668;BME280;42542;48.360;10.958;2023-12-14T01:06:28;95069.53;;;5.25;100.00
56668;BME280;42542;48.360;10.958;2023-12-14T01:09:29;95067.84;;;5.24;100.00
56668;BME280;42542;48.360;10.958;2023-12-14T01:12:32;95060.53;;;5.18;100.00
56668;BME280;42542;48.360;10.958;2023-12-14T01:15:35;95068.00;;;5.22;100.00
56668;BME280;42542;48.360;10.958;2023-12-14T01:18:36;95083.06;;;5.22;100.00
56668;BME280;42542;48.360;10.958;2023-12-14T01:21:39;95084.72;;;5.23;100.00
56668;BME280;42542;48.360;10.958;2023-12-14T01:24:41;95091.00;;;5.22;100.00
56668;BME280;42542;48.360;10.958;2023-12-14T01:27:43;95098.13;;;5.21;100.00
56668;BME280;42542;48.360;10.958;2023-12-14T01:30:45;95095.47;;;5.21;100.00
56668;BME280;42542;48.360;10.958;2023-12-14T01:33:47;95109.56;;;5.22;100.00
56668;BME280;42542;48.360;10.958;2023-12-14T01:36:49;95113.03;;;5.22;100.00
56668;BME280;42542;48.360;10.958;2023-12-14T01:39:51;95120.16;;;5.22;100.00
56668;BME280;42542;48.360;10.958;2023-12-14T01:42:53;95113.53;;;5.18;100.00
56668;BME280;42542;48.360;10.958;2023-12-14T01:45:55;95123.78;;;5.21;100.00
56668;BME280;42542;48.360;10.958;2023-12-14T01:48:57;95134.38;;;5.21;100.00
56668;BME280;42542;48.360;10.958;2023-12-14T01:51:59;95139.38;;;5.24;100.00
56668;BME280;42542;48.360;10.958;2023-12-14T01:55:01;95139.38;;;5.24;100.00
56668;BME280;42542;48.360;10.958;2023-12-14T01:58:04;95140.53;;;5.21;100.00
56668;BME280;42542;48.360;10.958;2023-12-14T02:04:26;95152.41;;;5.17;100.00
56668;BME280;42542;48.360;10.958;2023-12-14T02:07:28;95155.06;;;5.17;100.00
56668;BME280;42542;48.360;10.958;2023-12-14T02:10:29;95155.91;;;5.18;100.00
56668;BME280;42542;48.360;10.958;2023-12-14T02:13:31;95161.50;;;5.15;100.00
56668;BME280;42542;48.360;10.958;2023-12-14T02:16:33;95169.59;;;5.13;100.00
56668;BME280;42542;48.360;10.958;2023-12-14T02:19:35;95172.38;;;5.11;100.00
56668;BME280;42542;48.360;10.958;2023-12-14T02:22:51;95162.97;;;5.09;100.00
56668;BME280;42542;48.360;10.958;2023-12-14T02:25:54;95168.25;;;5.09;100.00
56668;BME280;42542;48.360;10.958;2023-12-14T02:28:56;95168.56;;;5.06;100.00
56668;BME280;42542;48.360;10.958;2023-12-14T02:31:58;95175.66;;;5.05;100.00
56668;BME280;42542;48.360;10.958;2023-12-14T02:35:00;95181.28;;;5.02;100.00
56668;BME280;42542;48.360;10.958;2023-12-14T02:38:03;95190.22;;;5.01;100.00
56668;BME280;42542;48.360;10.958;2023-12-14T02:41:05;95187.19;;;4.96;100.00
56668;BME280;42542;48.360;10.958;2023-12-14T02:44:07;95195.13;;;4.96;100.00
56668;BME280;42542;48.360;10.958;2023-12-14T02:47:09;95196.13;;;4.95;100.00
56668;BME280;42542;48.360;10.958;2023-12-14T02:50:11;95208.53;;;4.95;100.00
56668;BME280;42542;48.360;10.958;2023-12-14T02:53:13;95207.69;;;4.94;100.00
56668;BME280;42542;48.360;10.958;2023-12-14T02:56:16;95212.16;;;4.94;100.00
56668;BME280;42542;48.360;10.958;2023-12-14T02:59:18;95226.09;;;4.96;100.00
56668;BME280;42542;48.360;10.958;2023-12-14T03:02:20;95228.72;;;4.96;100.00
56668;BME280;42542;48.360;10.958;2023-12-14T03:05:22;95233.19;;;4.95;100.00
56668;BME280;42542;48.360;10.958;2023-12-14T03:08:24;95233.34;;;4.94;100.00
56668;BME280;42542;48.360;10.958;2023-12-14T03:11:26;95231.44;;;4.86;100.00
56668;BME280;42542;48.360;10.958;2023-12-14T03:14:32;95246.22;;;4.89;100.00
56668;BME280;42542;48.360;10.958;2023-12-14T03:17:35;95244.06;;;4.92;100.00
56668;BME280;42542;48.360;10.958;2023-12-14T03:20:37;95238.91;;;4.91;100.00
56668;BME280;42542;48.360;10.958;2023-12-14T03:23:39;95253.97;;;4.90;100.00
56668;BME280;42542;48.360;10.958;2023-12-14T03:26:41;95245.97;;;4.82;100.00
56668;BME280;42542;48.360;10.958;2023-12-14T03:29:44;95257.78;;;4.88;100.00
56668;BME280;42542;48.360;10.958;2023-12-14T03:32:46;95264.19;;;4.85;100.00
56668;BME280;42542;48.360;10.958;2023-12-14T03:35:48;95270.63;;;4.83;100.00
56668;BME280;42542;48.360;10.958;2023-12-14T03:38:49;95271.44;;;4.83;100.00
56668;BME280;42542;48.360;10.958;2023-12-14T03:41:52;95280.41;;;4.82;100.00
56668;BME280;42542;48.360;10.958;2023-12-14T03:44:54;95281.19;;;4.83;100.00
56668;BME280;42542;48.360;10.958;2023-12-14T03:47:57;95282.66;;;4.77;100.00
56668;BME280;42542;48.360;10.958;2023-12-14T03:51:02;95299.91;;;4.81;100.00
56668;BME280;42542;48.360;10.958;2023-12-14T03:54:05;95295.75;;;4.79;100.00
56668;BME280;42542;48.360;10.958;2023-12-14T03:57:06;95295.59;;;4.80;100.00
56668;BME280;42542;48.360;10.958;2023-12-14T04:00:12;95301.88;;;4.79;100.00
56668;BME280;42542;48.360;10.958;2023-12-14T04:03:14;95303.41;;;4.82;100.00
56668;BME280;42542;48.360;10.958;2023-12-14T04:06:16;95299.50;;;4.76;100.00
56668;BME280;42542;48.360;10.958;2023-12-14T04:09:18;95308.59;;;4.74;100.00
56668;BME280;42542;48.360;10.958;2023-12-14T04:12:20;95314.97;;;4.81;100.00
56668;BME280;42542;48.360;10.958;2023-12-14T04:15:23;95322.06;;;4.80;100.00
56668;BME280;42542;48.360;10.958;2023-12-14T04:18:24;95336.81;;;4.83;100.00
56668;BME280;42542;48.360;10.958;2023-12-14T04:21:26;95337.63;;;4.83;100.00
56668;BME280;42542;48.360;10.958;2023-12-14T04:24:35;95336.66;;;4.84;100.00
56668;BME280;42542;48.360;10.958;2023-12-14T04:27:41;95346.28;;;4.85;100.00
56668;BME280;42542;48.360;10.958;2023-12-14T04:30:43;95336.66;;;4.84;100.00
56668;BME280;42542;48.360;10.958;2023-12-14T04:33:44;95350.59;;;4.86;100.00
56668;BME280;42542;48.360;10.958;2023-12-14T04:36:48;95359.38;;;4.87;100.00
56668;BME280;42542;48.360;10.958;2023-12-14T04:39:50;95357.56;;;4.87;100.00
56668;BME280;42542;48.360;10.958;2023-12-14T04:42:52;95358.41;;;4.88;100.00
56668;BME280;42542;48.360;10.958;2023-12-14T04:45:55;95361.19;;;4.86;100.00
56668;BME280;42542;48.360;10.958;2023-12-14T04:48:57;95383.06;;;4.88;100.00
56668;BME280;42542;48.360;10.958;2023-12-14T04:51:59;95383.72;;;4.90;100.00
56668;BME280;42542;48.360;10.958;2023-12-14T04:55:01;95386.38;;;4.90;100.00
56668;BME280;42542;48.360;10.958;2023-12-14T04:58:03;95388.03;;;4.91;100.00
56668;BME280;42542;48.360;10.958;2023-12-14T05:01:05;95395.47;;;4.88;100.00
56668;BME280;42542;48.360;10.958;2023-12-14T05:04:07;95394.78;;;4.86;100.00
56668;BME280;42542;48.360;10.958;2023-12-14T05:07:09;95407.28;;;4.93;100.00
56668;BME280;42542;48.360;10.958;2023-12-14T05:10:11;95415.22;;;4.93;100.00
56668;BME280;42542;48.360;10.958;2023-12-14T05:13:13;95410.06;;;4.92;100.00
56668;BME280;42542;48.360;10.958;2023-12-14T05:16:16;95415.50;;;4.90;100.00
56668;BME280;42542;48.360;10.958;2023-12-14T05:19:18;95421.81;;;4.89;100.00
56668;BME280;42542;48.360;10.958;2023-12-14T05:22:20;95424.44;;;4.89;100.00
56668;BME280;42542;48.360;10.958;2023-12-14T05:25:22;95432.41;;;4.89;100.00
56668;BME280;42542;48.360;10.958;2023-12-14T05:28:24;95442.16;;;4.89;100.00
56668;BME280;42542;48.360;10.958;2023-12-14T05:31:26;95443.00;;;4.89;100.00
56668;BME280;42542;48.360;10.958;2023-12-14T05:34:28;95442.44;;;4.86;100.00
56668;BME280;42542;48.360;10.958;2023-12-14T05:37:29;95445.66;;;4.80;100.00
56668;BME280;42542;48.360;10.958;2023-12-14T05:40:31;95447.47;;;4.79;100.00
56668;BME280;42542;48.360;10.958;2023-12-14T05:43:33;95451.09;;;4.78;100.00
56668;BME280;42542;48.360;10.958;2023-12-14T05:46:35;95466.41;;;4.84;100.00
56668;BME280;42542;48.360;10.958;2023-12-14T05:49:41;95475.03;;;4.86;100.00
56668;BME280;42542;48.360;10.958;2023-12-14T05:52:44;95484.66;;;4.87;100.00
56668;BME280;42542;48.360;10.958;2023-12-14T05:55:47;95489.94;;;4.87;100.00
56668;BME280;42542;48.360;10.958;2023-12-14T05:58:49;95488.56;;;4.83;100.00
56668;BME280;42542;48.360;10.958;2023-12-14T06:01:59;95505.16;;;4.85;100.00
56668;BME280;42542;48.360;10.958;2023-12-14T06:05:02;95512.94;;;4.87;100.00
56668;BME280;42542;48.360;10.958;2023-12-14T06:08:04;95505.00;;;4.87;100.00
56668;BME280;42542;48.360;10.958;2023-12-14T06:11:08;95511.28;;;4.86;100.00
56668;BME280;42542;48.360;10.958;2023-12-14T06:14:10;95512.94;;;4.87;100.00
56668;BME280;42542;48.360;10.958;2023-12-14T06:17:12;95518.25;;;4.87;100.00
56668;BME280;42542;48.360;10.958;2023-12-14T06:20:14;95532.31;;;4.87;100.00
56668;BME280;42542;48.360;10.958;2023-12-14T06:23:16;95538.59;;;4.86;100.00
56668;BME280;42542;48.360;10.958;2023-12-14T06:26:18;95533.56;;;4.83;100.00
56668;BME280;42542;48.360;10.958;2023-12-14T06:29:19;95551.00;;;4.86;100.00
56668;BME280;42542;48.360;10.958;2023-12-14T06:32:22;95555.44;;;4.85;100.00
56668;BME280;42542;48.360;10.958;2023-12-14T06:35:23;95558.09;;;4.85;100.00
56668;BME280;42542;48.360;10.958;2023-12-14T06:38:26;95560.75;;;4.85;100.00
56668;BME280;42542;48.360;10.958;2023-12-14T06:41:28;95566.03;;;4.85;100.00
56668;BME280;42542;48.360;10.958;2023-12-14T06:44:30;95566.19;;;4.84;100.00
56668;BME280;42542;48.360;10.958;2023-12-14T06:47:34;95572.03;;;4.87;100.00
56668;BME280;42542;48.360;10.958;2023-12-14T06:50:37;95583.34;;;4.89;100.00
56668;BME280;42542;48.360;10.958;2023-12-14T06:53:42;95578.31;;;4.86;100.00
56668;BME280;42542;48.360;10.958;2023-12-14T06:56:44;95584.31;;;4.88;100.00
56668;BME280;42542;48.360;10.958;2023-12-14T06:59:46;95595.44;;;4.92;100.00
56668;BME280;42542;48.360;10.958;2023-12-14T07:02:48;95595.56;;;4.90;100.00
56668;BME280;42542;48.360;10.958;2023-12-14T07:05:51;95603.38;;;4.92;100.00
56668;BME280;42542;48.360;10.958;2023-12-14T07:08:53;95608.00;;;4.90;100.00
56668;BME280;42542;48.360;10.958;2023-12-14T07:11:54;95614.81;;;4.92;100.00
56668;BME280;42542;48.360;10.958;2023-12-14T07:14:57;95616.63;;;4.92;100.00
56668;BME280;42542;48.360;10.958;2023-12-14T07:17:58;95624.44;;;4.93;100.00
56668;BME280;42542;48.360;10.958;2023-12-14T07:21:01;95634.75;;;4.96;100.00
56668;BME280;42542;48.360;10.958;2023-12-14T07:24:04;95639.03;;;4.97;100.00
56668;BME280;42542;48.360;10.958;2023-12-14T07:27:05;95646.84;;;4.99;100.00
56668;BME280;42542;48.360;10.958;2023-12-14T07:30:07;95642.41;;;4.99;100.00
56668;BME280;42542;48.360;10.958;2023-12-14T07:33:10;95647.56;;;5.01;100.00
56668;BME280;42542;48.360;10.958;2023-12-14T07:36:13;95648.53;;;5.00;100.00
56668;BME280;42542;48.360;10.958;2023-12-14T07:39:15;95642.25;;;5.01;100.00
56668;BME280;42542;48.360;10.958;2023-12-14T07:42:17;95652.84;;;5.01;100.00
56668;BME280;42542;48.360;10.958;2023-12-14T07:45:21;95656.88;;;5.05;100.00
56668;BME280;42542;48.360;10.958;2023-12-14T07:48:23;95665.00;;;5.03;100.00
56668;BME280;42542;48.360;10.958;2023-12-14T07:51:26;95665.00;;;5.03;100.00
56668;BME280;42542;48.360;10.958;2023-12-14T07:54:27;95670.28;;;5.03;100.00
56668;BME280;42542;48.360;10.958;2023-12-14T07:57:29;95677.94;;;5.06;100.00
56668;BME280;42542;48.360;10.958;2023-12-14T08:00:31;95670.13;;;5.05;100.00
56668;BME280;42542;48.360;10.958;2023-12-14T08:03:34;95683.09;;;5.08;100.00
56668;BME280;42542;48.360;10.958;2023-12-14T08:06:36;95695.06;;;5.12;100.00
56668;BME280;42542;48.360;10.958;2023-12-14T08:09:40;95697.72;;;5.12;100.00
56668;BME280;42542;48.360;10.958;2023-12-14T08:12:42;95697.44;;;5.15;100.00
56668;BME280;42542;48.360;10.958;2023-12-14T08:15:44;95699.81;;;5.18;100.00
56668;BME280;42542;48.360;10.958;2023-12-14T08:18:46;95700.94;;;5.16;100.00
56668;BME280;42542;48.360;10.958;2023-12-14T08:21:49;95705.66;;;5.22;100.00
56668;BME280;42542;48.360;10.958;2023-12-14T08:24:51;95710.97;;;5.22;100.00
56668;BME280;42542;48.360;10.958;2023-12-14T08:27:52;95721.44;;;5.23;100.00
56668;BME280;42542;48.360;10.958;2023-12-14T08:30:54;95731.88;;;5.25;100.00
56668;BME280;42542;48.360;10.958;2023-12-14T08:33:57;95740.38;;;5.28;100.00
56668;BME280;42542;48.360;10.958;2023-12-14T08:37:00;95745.53;;;5.30;100.00
56668;BME280;42542;48.360;10.958;2023-12-14T08:40:05;95747.22;;;5.31;100.00
56668;BME280;42542;48.360;10.958;2023-12-14T08:43:07;95750.69;;;5.31;100.00
56668;BME280;42542;48.360;10.958;2023-12-14T08:46:08;95769.94;;;5.33;100.00
56668;BME280;42542;48.360;10.958;2023-12-14T08:49:13;95772.56;;;5.33;100.00
56668;BME280;42542;48.360;10.958;2023-12-14T08:52:16;95773.28;;;5.35;100.00
56668;BME280;42542;48.360;10.958;2023-12-14T08:55:18;95775.94;;;5.35;100.00
56668;BME280;42542;48.360;10.958;2023-12-14T08:58:20;95779.28;;;5.37;100.00
56668;BME280;42542;48.360;10.958;2023-12-14T09:01:23;95785.56;;;5.36;100.00
56668;BME280;42542;48.360;10.958;2023-12-14T09:04:27;95792.53;;;5.37;100.00
56668;BME280;42542;48.360;10.958;2023-12-14T09:07:29;95789.75;;;5.39;100.00
56668;BME280;42542;48.360;10.958;2023-12-14T09:10:31;95792.09;;;5.42;100.00
56668;BME280;42542;48.360;10.958;2023-12-14T09:13:33;95807.88;;;5.43;100.00
56668;BME280;42542;48.360;10.958;2023-12-14T09:16:35;95802.44;;;5.45;100.00
56668;BME280;42542;48.360;10.958;2023-12-14T09:19:38;95809.41;;;5.46;100.00
56668;BME280;42542;48.360;10.958;2023-12-14T09:22:40;95817.38;;;5.46;100.00
56668;BME280;42542;48.360;10.958;2023-12-14T09:25:42;95811.50;;;5.42;100.00
56668;BME280;42542;48.360;10.958;2023-12-14T09:28:44;95836.34;;;5.51;100.00
56668;BME280;42542;48.360;10.958;2023-12-14T09:31:46;95828.25;;;5.53;100.00
56668;BME280;42542;48.360;10.958;2023-12-14T09:34:48;95834.25;;;5.55;100.00
56668;BME280;42542;48.360;10.958;2023-12-14T09:37:50;95844.56;;;5.58;100.00
56668;BME280;42542;48.360;10.958;2023-12-14T09:40:52;95848.03;;;5.58;100.00
56668;BME280;42542;48.360;10.958;2023-12-14T09:43:54;95843.00;;;5.55;100.00
56668;BME280;42542;48.360;10.958;2023-12-14T09:47:00;95841.47;;;5.62;100.00
56668;BME280;42542;48.360;10.958;2023-12-14T09:50:02;95845.81;;;5.63;100.00
56668;BME280;42542;48.360;10.958;2023-12-14T09:53:05;95848.19;;;5.66;100.00
56668;BME280;42542;48.360;10.958;2023-12-14T09:56:07;95853.19;;;5.69;100.00
56668;BME280;42542;48.360;10.958;2023-12-14T09:59:09;95852.91;;;5.72;100.00
56668;BME280;42542;48.360;10.958;2023-12-14T10:02:12;95856.94;;;5.76;100.00
56668;BME280;42542;48.360;10.958;2023-12-14T10:05:16;95853.31;;;5.77;100.00
56668;BME280;42542;48.360;10.958;2023-12-14T10:08:18;95858.50;;;5.79;100.00
56668;BME280;42542;48.360;10.958;2023-12-14T10:11:20;95872.59;;;5.79;100.00
56668;BME280;42542;48.360;10.958;2023-12-14T10:14:24;95867.44;;;5.78;100.00
56668;BME280;42542;48.360;10.958;2023-12-14T10:17:27;95872.72;;;5.78;100.00
56668;BME280;42542;48.360;10.958;2023-12-14T10:20:34;95880.69;;;5.78;100.00
56668;BME280;42542;48.360;10.958;2023-12-14T10:23:38;95883.47;;;5.76;100.00
56668;BME280;42542;48.360;10.958;2023-12-14T10:26:40;95884.88;;;5.80;100.00
56668;BME280;42542;48.360;10.958;2023-12-14T10:29:44;95884.44;;;5.85;100.00
56668;BME280;42542;48.360;10.958;2023-12-14T10:32:48;95879.97;;;5.85;100.00
56668;BME280;42542;48.360;10.958;2023-12-14T10:35:50;95886.13;;;5.86;100.00
56668;BME280;42542;48.360;10.958;2023-12-14T10:38:54;95877.19;;;5.87;100.00
56668;BME280;42542;48.360;10.958;2023-12-14T10:42:02;95889.06;;;5.93;100.00
56668;BME280;42542;48.360;10.958;2023-12-14T10:45:16;95891.03;;;6.00;100.00
56668;BME280;42542;48.360;10.958;2023-12-14T10:48:25;95892.56;;;6.03;100.00
56668;BME280;42542;48.360;10.958;2023-12-14T10:51:27;95896.06;;;6.03;100.00
56668;BME280;42542;48.360;10.958;2023-12-14T10:54:32;95899.13;;;6.08;100.00
56668;BME280;42542;48.360;10.958;2023-12-14T10:57:37;95900.66;;;6.01;100.00
56668;BME280;42542;48.360;10.958;2023-12-14T11:00:43;95894.53;;;6.01;100.00
56668;BME280;42542;48.360;10.958;2023-12-14T11:03:47;95900.53;;;6.03;100.00
56668;BME280;42542;48.360;10.958;2023-12-14T11:06:53;95907.66;;;6.02;100.00
56668;BME280;42542;48.360;10.958;2023-12-14T11:09:55;95913.38;;;5.98;100.00
56668;BME280;42542;48.360;10.958;2023-12-14T11:13:02;95917.84;;;5.97;100.00
56668;BME280;42542;48.360;10.958;2023-12-14T11:16:06;95922.16;;;5.98;100.00
56668;BME280;42542;48.360;10.958;2023-12-14T11:19:28;95921.19;;;5.99;100.00
56668;BME280;42542;48.360;10.958;2023-12-14T11:22:30;95929.00;;;6.01;100.00
56668;BME280;42542;48.360;10.958;2023-12-14T11:25:33;95929.72;;;6.03;100.00
56668;BME280;42542;48.360;10.958;2023-12-14T11:28:47;95937.25;;;6.07;100.00
56668;BME280;42542;48.360;10.958;2023-12-14T11:31:50;95938.91;;;6.08;100.00
56668;BME280;42542;48.360;10.958;2023-12-14T11:34:52;95948.81;;;6.16;100.00
56668;BME280;42542;48.360;10.958;2023-12-14T11:37:54;95948.69;;;6.17;100.00
56668;BME280;42542;48.360;10.958;2023-12-14T11:40:58;95961.53;;;6.22;100.00
56668;BME280;42542;48.360;10.958;2023-12-14T11:44:01;95951.31;;;6.27;100.00
56668;BME280;42542;48.360;10.958;2023-12-14T11:47:03;95952.31;;;6.26;100.00
56668;BME280;42542;48.360;10.958;2023-12-14T11:50:06;95955.66;;;6.28;100.00
56668;BME280;42542;48.360;10.958;2023-12-14T11:53:09;95966.13;;;6.30;100.00
56668;BME280;42542;48.360;10.958;2023-12-14T11:56:10;95968.22;;;6.36;100.00
56668;BME280;42542;48.360;10.958;2023-12-14T11:59:14;95966.25;;;6.38;100.00
56668;BME280;42542;48.360;10.958;2023-12-14T12:02:23;95966.13;;;6.39;100.00
56668;BME280;42542;48.360;10.958;2023-12-14T12:05:50;95971.13;;;6.42;100.00
56668;BME280;42542;48.360;10.958;2023-12-14T12:08:53;95974.63;;;6.43;100.00
56668;BME280;42542;48.360;10.958;2023-12-14T12:11:55;95974.34;;;6.46;100.00
56668;BME280;42542;48.360;10.958;2023-12-14T12:14:57;95973.25;;;6.48;100.00
56668;BME280;42542;48.360;10.958;2023-12-14T12:17:58;95978.56;;;6.48;100.00
56668;BME280;42542;48.360;10.958;2023-12-14T12:21:01;95978.38;;;6.50;100.00
56668;BME280;42542;48.360;10.958;2023-12-14T12:24:06;95976.44;;;6.52;100.00
56668;BME280;42542;48.360;10.958;2023-12-14T12:27:26;95976.00;;;6.56;100.00
56668;BME280;42542;48.360;10.958;2023-12-14T12:30:28;95984.13;;;6.55;100.00
56668;BME280;42542;48.360;10.958;2023-12-14T12:33:31;95986.59;;;6.56;100.00
56668;BME280;42542;48.360;10.958;2023-12-14T12:36:43;95982.13;;;6.57;100.00
56668;BME280;42542;48.360;10.958;2023-12-14T12:39:46;95991.78;;;6.58;100.00
56668;BME280;42542;48.360;10.958;2023-12-14T12:42:48;95980.31;;;6.57;100.00
56668;BME280;42542;48.360;10.958;2023-12-14T12:45:50;95986.19;;;6.61;100.00
56668;BME280;42542;48.360;10.958;2023-12-14T12:48:52;95996.81;;;6.61;100.00
56668;BME280;42542;48.360;10.958;2023-12-14T12:51:54;95998.63;;;6.60;100.00
56668;BME280;42542;48.360;10.958;2023-12-14T12:54:56;95996.81;;;6.61;100.00
56668;BME280;42542;48.360;10.958;2023-12-14T12:57:58;95995.69;;;6.63;100.00
56668;BME280;42542;48.360;10.958;2023-12-14T13:01:06;95997.22;;;6.66;100.00
56668;BME280;42542;48.360;10.958;2023-12-14T13:04:18;95994.84;;;6.63;100.00
56668;BME280;42542;48.360;10.958;2023-12-14T13:07:20;96010.63;;;6.64;100.00
56668;BME280;42542;48.360;10.958;2023-12-14T13:10:23;96021.13;;;6.66;100.00
56668;BME280;42542;48.360;10.958;2023-12-14T13:13:33;96025.47;;;6.67;100.00
56668;BME280;42542;48.360;10.958;2023-12-14T13:16:35;96028.97;;;6.68;100.00
56668;BME280;42542;48.360;10.958;2023-12-14T13:19:38;96030.78;;;6.67;100.00
56668;BME280;42542;48.360;10.958;2023-12-14T13:22:40;96029.81;;;6.68;100.00
56668;BME280;42542;48.360;10.958;2023-12-14T13:25:42;96038.59;;;6.69;100.00
56668;BME280;42542;48.360;10.958;2023-12-14T13:28:46;96037.47;;;6.71;100.00
56668;BME280;42542;48.360;10.958;2023-12-14T13:31:48;96047.13;;;6.72;100.00
56668;BME280;42542;48.360;10.958;2023-12-14T13:34:50;96040.81;;;6.73;100.00
56668;BME280;42542;48.360;10.958;2023-12-14T13:37:51;96047.69;;;6.76;100.00
56668;BME280;42542;48.360;10.958;2023-12-14T13:40:53;96059.53;;;6.81;100.00
56668;BME280;42542;48.360;10.958;2023-12-14T13:43:55;96052.44;;;6.72;100.00
56668;BME280;42542;48.360;10.958;2023-12-14T13:46:57;96060.38;;;6.82;100.00
56668;BME280;42542;48.360;10.958;2023-12-14T13:49:59;96069.06;;;6.84;100.00
56668;BME280;42542;48.360;10.958;2023-12-14T13:53:00;96073.22;;;6.86;100.00
56668;BME280;42542;48.360;10.958;2023-12-14T13:56:04;96086.38;;;6.88;100.00
56668;BME280;42542;48.360;10.958;2023-12-14T13:59:05;96090.84;;;6.87;100.00
56668;BME280;42542;48.360;10.958;2023-12-14T14:02:09;96092.53;;;6.88;100.00
56668;BME280;42542;48.360;10.958;2023-12-14T14:05:12;96098.69;;;6.89;100.00
56668;BME280;42542;48.360;10.958;2023-12-14T14:08:15;96109.31;;;6.89;100.00
56668;BME280;42542;48.360;10.958;2023-12-14T14:11:18;96115.59;;;6.88;100.00
56668;BME280;42542;48.360;10.958;2023-12-14T14:14:22;96127.50;;;6.84;100.00
56668;BME280;42542;48.360;10.958;2023-12-14T14:17:24;96125.38;;;6.78;100.00
56668;BME280;42542;48.360;10.958;2023-12-14T14:20:27;96141.78;;;6.83;100.00
56668;BME280;42542;48.360;10.958;2023-12-14T14:23:28;96140.22;;;6.80;100.00
56668;BME280;42542;48.360;10.958;2023-12-14T14:26:31;96150.97;;;6.79;100.00
56668;BME280;42542;48.360;10.958;2023-12-14T14:29:33;96152.38;;;6.73;100.00
56668;BME280;42542;48.360;10.958;2023-12-14T14:32:35;96151.84;;;6.70;99.50
56668;BME280;42542;48.360;10.958;2023-12-14T14:35:39;96154.75;;;6.66;98.98
56668;BME280;42542;48.360;10.958;2023-12-14T14:38:41;96159.09;;;6.68;99.20
56668;BME280;42542;48.360;10.958;2023-12-14T14:41:45;96159.94;;;6.68;99.93
56668;BME280;42542;48.360;10.958;2023-12-14T14:44:46;96159.38;;;6.64;100.00
56668;BME280;42542;48.360;10.958;2023-12-14T14:47:48;96166.38;;;6.65;100.00
56668;BME280;42542;48.360;10.958;2023-12-14T14:50:50;96174.47;;;6.64;100.00
56668;BME280;42542;48.360;10.958;2023-12-14T14:53:53;96174.47;;;6.64;100.00
56668;BME280;42542;48.360;10.958;2023-12-14T14:56:55;96180.75;;;6.63;100.00
56668;BME280;42542;48.360;10.958;2023-12-14T14:59:57;96187.91;;;6.62;100.00
56668;BME280;42542;48.360;10.958;2023-12-14T15:02:58;96188.59;;;6.55;100.00
56668;BME280;42542;48.360;10.958;2023-12-14T15:06:01;96203.00;;;6.62;100.00
56668;BME280;42542;48.360;10.958;2023-12-14T15:09:05;96214.59;;;6.61;100.00
56668;BME280;42542;48.360;10.958;2023-12-14T15:12:11;96218.34;;;6.58;100.00
56668;BME280;42542;48.360;10.958;2023-12-14T15:15:12;96230.91;;;6.56;100.00
56668;BME280;42542;48.360;10.958;2023-12-14T15:18:15;96227.84;;;6.51;100.00
56668;BME280;42542;48.360;10.958;2023-12-14T15:21:17;96234.72;;;6.54;100.00
56668;BME280;42542;48.360;10.958;2023-12-14T15:24:19;96240.16;;;6.52;100.00
56668;BME280;42542;48.360;10.958;2023-12-14T15:27:21;96236.78;;;6.50;100.00
56668;BME280;42542;48.360;10.958;2023-12-14T15:30:23;96235.78;;;6.42;100.00
56668;BME280;42542;48.360;10.958;2023-12-14T15:33:25;96244.47;;;6.44;100.00
56668;BME280;42542;48.360;10.958;2023-12-14T15:36:27;96253.53;;;6.41;100.00
56668;BME280;42542;48.360;10.958;2023-12-14T15:39:31;96256.59;;;6.37;100.00
56668;BME280;42542;48.360;10.958;2023-12-14T15:42:34;96268.06;;;6.37;100.00
56668;BME280;42542;48.360;10.958;2023-12-14T15:45:37;96274.34;;;6.36;100.00
56668;BME280;42542;48.360;10.958;2023-12-14T15:48:38;96262.72;;;6.27;100.00
56668;BME280;42542;48.360;10.958;2023-12-14T15:51:41;96277.41;;;6.32;100.00
56668;BME280;42542;48.360;10.958;2023-12-14T15:54:43;96276.81;;;6.28;100.00
56668;BME280;42542;48.360;10.958;2023-12-14T15:57:46;96281.44;;;6.26;100.00
56668;BME280;42542;48.360;10.958;2023-12-14T16:00:48;96284.22;;;6.24;100.00